createdAt,value
2018-06-22T00:05:09.192Z,1.52
2018-06-22T00:07:42.655Z,1.40
2018-06-22T00:10:15.236Z,1.67
2018-06-22T00:12:48.472Z,1.23
2018-06-22T00:15:20.418Z,1.63
2018-06-22T00:17:53.722Z,1.50
2018-06-22T00:20:25.401Z,1.93
2018-06-22T00:22:58.625Z,1.70
2018-06-22T00:25:31.855Z,1.50
2018-06-22T00:28:06.316Z,1.50
2018-06-22T00:33:14.223Z,1.70
2018-06-22T00:35:48.526Z,1.70
2018-06-22T00:38:19.844Z,1.90
2018-06-22T00:40:52.006Z,1.40
2018-06-22T00:43:23.591Z,1.73
2018-06-22T00:45:56.651Z,1.80
2018-06-22T00:48:29.723Z,1.67
2018-06-22T00:51:02.146Z,1.47
2018-06-22T00:56:11.595Z,1.70
2018-06-22T00:58:45.196Z,1.80
2018-06-22T01:01:18.004Z,1.93
2018-06-22T01:03:50.477Z,1.90
2018-06-22T01:06:23.465Z,2.07
2018-06-22T01:11:33.252Z,2.00
2018-06-22T01:14:06.128Z,2.10
2018-06-22T01:16:39.091Z,1.90
2018-06-22T01:19:11.403Z,2.33
2018-06-22T01:21:44.943Z,2.08
2018-06-22T01:24:18.901Z,1.73
2018-06-22T01:26:54.359Z,1.60
2018-06-22T01:29:28.070Z,2.57
2018-06-22T01:32:01.359Z,1.87
2018-06-22T01:34:36.084Z,2.23
2018-06-22T01:37:09.273Z,2.13
2018-06-22T01:39:38.702Z,1.67
2018-06-22T01:42:08.661Z,2.17
2018-06-22T01:44:37.734Z,2.17
2018-06-22T01:47:07.062Z,2.25
2018-06-22T01:49:36.154Z,2.00
2018-06-22T01:52:05.211Z,2.13
2018-06-22T01:54:34.268Z,2.13
2018-06-22T01:57:03.910Z,2.20
2018-06-22T01:59:32.969Z,1.80
2018-06-22T02:02:02.969Z,2.10
2018-06-22T02:04:32.262Z,2.13
2018-06-22T02:07:01.458Z,1.73
2018-06-22T02:09:30.492Z,2.60
2018-06-22T02:14:09.922Z,2.17
2018-06-22T02:16:38.974Z,2.60
2018-06-22T02:21:44.179Z,2.60
2018-06-22T02:24:13.209Z,2.00
2018-06-22T02:26:42.269Z,3.00
2018-06-22T02:29:11.681Z,2.37
2018-06-22T02:31:40.748Z,2.77
2018-06-22T02:34:09.900Z,2.40
2018-06-22T02:36:39.311Z,2.30
2018-06-22T02:39:08.376Z,2.30
2018-06-22T02:41:37.423Z,2.27
2018-06-22T02:44:06.461Z,2.70
2018-06-22T02:46:35.793Z,2.43
2018-06-22T02:49:04.838Z,2.20
2018-06-22T02:51:33.871Z,2.83
2018-06-22T02:59:18.708Z,2.30
2018-06-22T03:01:47.993Z,2.80
2018-06-22T03:04:17.037Z,2.97
2018-06-22T03:06:46.092Z,2.50
2018-06-22T03:09:15.352Z,3.60
2018-06-22T03:11:44.396Z,2.70
2018-06-22T03:14:13.445Z,3.10
2018-06-22T03:19:18.191Z,2.85
2018-06-22T03:21:47.227Z,2.30
2018-06-22T03:26:53.241Z,2.70
2018-06-22T03:29:23.305Z,2.53
2018-06-22T03:31:52.583Z,2.63
2018-06-22T03:34:21.615Z,3.40
2018-06-22T03:36:50.662Z,3.23
2018-06-22T03:39:20.841Z,2.40
2018-06-22T03:41:49.884Z,2.50
2018-06-22T03:44:18.940Z,3.83
2018-06-22T03:46:48.112Z,4.00
2018-06-22T03:49:18.342Z,3.10
2018-06-22T03:51:47.389Z,2.53
2018-06-22T03:54:16.437Z,3.17
2018-06-22T03:56:45.871Z,2.40
2018-06-22T04:01:50.791Z,2.60
2018-06-22T04:04:20.018Z,3.33
2018-06-22T04:06:49.033Z,3.47
2018-06-22T04:09:19.130Z,3.47
2018-06-22T04:14:28.252Z,3.08
2018-06-22T04:16:57.305Z,2.97
2018-06-22T04:22:02.123Z,2.65
2018-06-22T04:24:31.311Z,2.65
2018-06-22T04:27:00.450Z,2.50
2018-06-22T04:29:29.501Z,3.08
2018-06-22T04:31:58.544Z,2.60
2018-06-22T04:34:27.844Z,2.85
2018-06-22T04:36:56.943Z,3.00
2018-06-22T04:39:25.974Z,2.85
2018-06-22T04:41:55.026Z,2.57
2018-06-22T04:46:59.844Z,2.78
2018-06-22T04:49:29.442Z,3.30
2018-06-22T04:51:58.713Z,2.60
2018-06-22T04:54:27.769Z,2.70
2018-06-22T04:56:57.005Z,2.53
2018-06-22T04:59:27.070Z,2.80
2018-06-22T05:01:56.092Z,3.40
2018-06-22T05:04:25.145Z,2.42
2018-06-22T05:06:54.412Z,2.47
2018-06-22T05:09:23.499Z,2.53
2018-06-22T05:11:52.575Z,2.73
2018-06-22T05:14:21.669Z,2.13
2018-06-22T05:16:50.735Z,2.70
2018-06-22T05:19:19.786Z,2.20
2018-06-22T05:21:48.891Z,2.28
2018-06-22T05:24:18.027Z,2.53
2018-06-22T05:26:47.077Z,2.30
2018-06-22T05:29:16.237Z,2.20
2018-06-22T05:31:45.406Z,2.23
2018-06-22T05:34:14.497Z,2.90
2018-06-22T05:36:43.549Z,2.30
2018-06-22T05:39:12.961Z,2.10
2018-06-22T05:41:42.024Z,2.50
2018-06-22T05:44:11.102Z,2.20
2018-06-22T05:49:16.869Z,2.70
2018-06-22T05:51:50.975Z,2.40
2018-06-22T05:54:20.036Z,2.53
2018-06-22T05:57:02.067Z,2.00
2018-06-22T05:59:46.662Z,2.20
2018-06-22T06:02:30.852Z,2.37
2018-06-22T06:05:18.905Z,3.10
2018-06-22T06:07:52.348Z,2.63
2018-06-22T06:10:21.406Z,2.30
2018-06-22T06:13:07.786Z,2.80
2018-06-22T06:15:37.928Z,3.03
2018-06-22T06:20:44.818Z,2.50
2018-06-22T06:23:14.316Z,2.42
2018-06-22T06:25:47.752Z,2.80
2018-06-22T06:28:17.358Z,2.33
2018-06-22T06:30:47.361Z,2.03
2018-06-22T06:33:16.401Z,2.70
2018-06-22T06:35:50.018Z,3.30
2018-06-22T06:38:19.053Z,2.22
2018-06-22T06:40:52.655Z,2.80
2018-06-22T06:43:21.910Z,2.40
2018-06-22T06:45:50.968Z,2.30
2018-06-22T06:50:55.927Z,2.20
2018-06-22T06:53:25.012Z,2.60
2018-06-22T06:55:58.719Z,2.30
2018-06-22T06:58:27.799Z,2.50
2018-06-22T07:00:57.169Z,2.30
2018-06-22T07:03:26.227Z,2.37
2018-06-22T07:08:31.330Z,2.30
2018-06-22T07:11:00.365Z,2.20
2018-06-22T07:13:29.398Z,2.40
2018-06-22T07:15:58.972Z,3.30
2018-06-22T07:18:28.964Z,2.53
2018-06-22T07:20:58.038Z,2.30
2018-06-22T07:23:32.689Z,2.40
2018-06-22T07:28:41.611Z,2.63
2018-06-22T07:31:11.869Z,2.73
2018-06-22T07:33:40.912Z,2.10
2018-06-22T07:36:09.987Z,2.40
2018-06-22T07:38:47.180Z,2.43
2018-06-22T07:41:16.229Z,2.90
2018-06-22T07:43:45.286Z,2.20
2018-06-22T07:48:51.087Z,2.40
2018-06-22T07:51:20.173Z,2.10
2018-06-22T07:53:51.189Z,2.80
2018-06-22T07:56:22.917Z,2.50
2018-06-22T07:58:56.141Z,2.43
2018-06-22T08:01:25.785Z,2.83
2018-06-22T08:03:54.867Z,2.37
2018-06-22T08:06:25.914Z,2.60
2018-06-22T08:08:55.095Z,2.90
2018-06-22T08:11:38.489Z,2.80
2018-06-22T08:14:07.999Z,2.80
2018-06-22T08:16:46.013Z,2.83
2018-06-22T08:19:16.298Z,2.90
2018-06-22T08:21:45.365Z,2.70
2018-06-22T08:24:16.723Z,3.27
2018-06-22T08:29:23.130Z,2.80
2018-06-22T08:31:52.335Z,2.93
2018-06-22T08:36:57.428Z,2.37
2018-06-22T08:39:26.474Z,2.95
2018-06-22T08:41:55.616Z,2.60
2018-06-22T08:44:27.406Z,2.93
2018-06-22T08:47:00.072Z,2.80
2018-06-22T08:49:38.032Z,2.35
2018-06-22T08:52:09.785Z,2.60
2018-06-22T08:54:42.016Z,3.07
2018-06-22T08:59:52.969Z,2.50
2018-06-22T09:02:26.376Z,3.20
2018-06-22T09:04:58.974Z,2.90
2018-06-22T09:10:09.152Z,2.70
2018-06-22T09:12:42.279Z,2.80
2018-06-22T09:15:18.182Z,2.12
2018-06-22T09:17:51.749Z,3.03
2018-06-22T09:20:35.243Z,2.90
2018-06-22T09:23:31.086Z,3.60
2018-06-22T09:28:40.640Z,3.00
2018-06-22T09:33:52.250Z,3.03
2018-06-22T09:39:01.900Z,2.63
2018-06-22T09:41:34.709Z,2.80
2018-06-22T09:44:16.457Z,2.73
2018-06-22T09:46:49.906Z,2.47
2018-06-22T09:49:22.894Z,2.00
2018-06-22T09:51:56.041Z,2.07
2018-06-22T09:54:34.432Z,2.53
2018-06-22T09:57:07.549Z,2.27
2018-06-22T09:59:40.745Z,2.10
2018-06-22T10:04:50.003Z,2.30
2018-06-22T10:07:22.769Z,2.10
2018-06-22T10:09:55.143Z,1.80
2018-06-22T10:12:26.256Z,2.07
2018-06-22T10:14:59.327Z,1.77
2018-06-22T10:17:34.312Z,1.73
2018-06-22T10:20:27.070Z,1.60
2018-06-22T10:22:59.548Z,1.97
2018-06-22T10:25:32.050Z,1.70
2018-06-22T10:28:11.472Z,1.70
2018-06-22T10:30:46.006Z,1.97
2018-06-22T10:33:18.944Z,2.00
2018-06-22T10:35:51.355Z,2.37
2018-06-22T10:38:28.719Z,2.08
2018-06-22T10:41:00.697Z,2.00
2018-06-22T10:43:33.007Z,2.10
2018-06-22T10:46:05.912Z,2.47
2018-06-22T10:48:48.489Z,2.20
2018-06-22T10:51:21.466Z,2.23
2018-06-22T10:53:53.119Z,2.37
2018-06-22T10:56:47.965Z,2.97
2018-06-22T11:01:59.263Z,2.55
2018-06-22T11:04:40.083Z,2.20
2018-06-22T11:07:15.064Z,2.50
2018-06-22T11:09:49.023Z,3.30
2018-06-22T11:12:23.764Z,2.47
2018-06-22T11:14:55.128Z,2.50
2018-06-22T11:20:04.345Z,3.10
2018-06-22T11:22:38.801Z,2.57
2018-06-22T11:27:48.349Z,2.83
2018-06-22T11:30:29.113Z,2.90
2018-06-22T11:33:03.940Z,2.70
2018-06-22T11:35:36.338Z,2.93
2018-06-22T11:38:09.374Z,3.20
2018-06-22T11:43:24.172Z,2.43
2018-06-22T11:45:55.411Z,2.20
2018-06-22T11:51:02.799Z,2.20
2018-06-22T11:53:38.742Z,2.20
2018-06-22T11:58:50.922Z,2.67
2018-06-22T12:01:28.310Z,2.90
2018-06-22T12:03:59.130Z,2.07
2018-06-22T12:06:36.454Z,2.30
2018-06-22T12:09:10.443Z,2.27
2018-06-22T12:11:42.405Z,2.30
2018-06-22T12:14:18.994Z,2.00
2018-06-22T12:16:52.162Z,2.90
2018-06-22T12:19:24.664Z,2.53
2018-06-22T12:21:53.720Z,2.13
2018-06-22T12:24:23.727Z,2.17
2018-06-22T12:26:52.803Z,2.10
2018-06-22T12:32:23.205Z,1.90
2018-06-22T12:34:52.267Z,1.70
2018-06-22T12:37:27.114Z,2.70
2018-06-22T12:39:56.185Z,1.90
2018-06-22T12:42:27.243Z,1.63
2018-06-22T12:44:56.346Z,1.73
2018-06-22T12:47:25.372Z,1.37
2018-06-22T12:49:54.427Z,1.00
2018-06-22T12:52:23.510Z,1.77
2018-06-22T12:54:53.502Z,1.10
2018-06-22T12:57:46.134Z,1.00
2018-06-22T13:02:50.974Z,1.50
2018-06-22T13:07:56.315Z,1.30
2018-06-22T13:10:26.438Z,1.50
2018-06-22T13:12:55.877Z,1.33
2018-06-22T13:15:24.938Z,1.17
2018-06-22T13:17:54.002Z,1.10
2018-06-22T13:20:23.068Z,1.93
2018-06-22T13:22:52.173Z,1.03
2018-06-22T13:27:58.080Z,1.20
2018-06-22T13:30:27.113Z,1.30
2018-06-22T13:32:58.183Z,1.37
2018-06-22T13:35:36.160Z,1.27
2018-06-22T13:38:06.221Z,1.70
2018-06-22T13:40:39.795Z,1.40
2018-06-22T13:43:08.881Z,1.40
2018-06-22T13:45:45.220Z,1.20
2018-06-22T13:48:14.274Z,1.17
2018-06-22T13:53:23.276Z,1.93
2018-06-22T13:55:56.486Z,1.33
2018-06-22T13:58:29.554Z,1.30
2018-06-22T14:01:03.188Z,1.87
2018-06-22T14:03:41.988Z,1.37
2018-06-22T14:09:10.069Z,1.23
2018-06-22T14:11:39.185Z,1.30
2018-06-22T14:14:08.392Z,1.10
2018-06-22T14:16:59.341Z,1.20
2018-06-22T14:19:28.394Z,1.67
2018-06-22T14:22:08.250Z,1.30
2018-06-22T14:24:37.296Z,1.20
2018-06-22T14:27:10.811Z,1.73
2018-06-22T14:29:40.093Z,1.33
2018-06-22T14:32:09.173Z,1.20
2018-06-22T14:34:38.221Z,1.17
2018-06-22T14:37:09.181Z,1.63
2018-06-22T14:39:39.348Z,1.37
2018-06-22T14:42:08.854Z,1.27
2018-06-22T14:44:38.126Z,1.43
2018-06-22T14:47:09.248Z,1.57
2018-06-22T14:49:38.332Z,1.27
2018-06-22T14:52:07.518Z,1.00
2018-06-22T14:54:42.102Z,1.27
2018-06-22T15:03:09.933Z,1.10
2018-06-22T15:08:35.833Z,1.20
2018-06-22T15:11:08.885Z,1.20
2018-06-22T15:13:38.872Z,1.80
2018-06-22T15:16:07.955Z,1.70
2018-06-22T15:18:37.195Z,1.60
2018-06-22T15:21:14.459Z,2.85
2018-06-22T15:23:43.522Z,1.77
2018-06-22T15:26:27.889Z,2.00
2018-06-22T15:29:21.137Z,1.07
2018-06-22T15:31:50.196Z,1.20
2018-06-22T15:37:34.049Z,1.40
2018-06-22T15:40:08.561Z,1.40
2018-06-22T15:45:33.393Z,1.60
2018-06-22T15:56:39.913Z,1.30
2018-06-22T15:59:08.990Z,0.90
2018-06-22T16:01:38.287Z,1.33
2018-06-22T16:04:18.604Z,1.27
2018-06-22T16:06:47.655Z,1.40
2018-06-22T16:09:28.622Z,1.43
2018-06-22T16:12:01.587Z,1.20
2018-06-22T16:14:31.569Z,1.10
2018-06-22T16:28:54.614Z,1.00
2018-06-22T16:31:23.750Z,1.30
2018-06-22T16:33:52.912Z,1.43
2018-06-22T16:39:01.595Z,1.50
2018-06-22T16:41:30.829Z,2.27
2018-06-22T16:44:04.652Z,1.40
2018-06-22T16:46:34.597Z,1.30
2018-06-22T16:49:07.517Z,1.10
2018-06-22T16:51:36.589Z,1.42
2018-06-22T16:54:25.382Z,1.47
2018-06-22T16:56:54.445Z,1.50
2018-06-22T16:59:28.752Z,1.10
2018-06-22T17:02:00.858Z,1.40
2018-06-22T17:04:30.825Z,1.40
2018-06-22T17:06:59.887Z,1.10
2018-06-22T17:21:17.626Z,1.10
2018-06-22T17:23:47.254Z,1.40
2018-06-22T17:26:16.316Z,1.37
2018-06-22T17:28:46.489Z,1.43
2018-06-22T17:31:28.309Z,1.10
2018-06-22T17:36:33.122Z,1.33
2018-06-22T17:39:19.641Z,1.43
2018-06-22T17:41:48.711Z,1.53
2018-06-22T17:44:29.531Z,1.20
2018-06-22T17:46:58.589Z,1.13
2018-06-22T17:49:28.549Z,1.30
2018-06-22T17:51:57.819Z,1.40
2018-06-22T17:54:28.810Z,1.60
2018-06-22T17:59:46.232Z,1.60
2018-06-22T18:05:04.010Z,1.40
2018-06-22T18:07:33.083Z,1.40
2018-06-22T18:10:02.131Z,1.70
2018-06-22T18:12:46.168Z,1.70
2018-06-22T18:17:50.933Z,1.70
2018-06-22T18:20:20.081Z,2.00
2018-06-22T18:25:25.693Z,2.20
2018-06-22T18:27:55.705Z,2.10
2018-06-22T18:33:00.958Z,2.17
2018-06-22T18:35:30.012Z,2.53
2018-06-22T18:37:59.134Z,2.43
2018-06-22T18:40:28.182Z,2.30
2018-06-22T18:42:57.248Z,2.30
2018-06-22T18:45:26.305Z,2.30
2018-06-22T18:47:55.374Z,2.67
2018-06-22T18:50:25.478Z,1.90
2018-06-22T19:01:22.449Z,2.23
2018-06-22T19:03:52.470Z,2.27
2018-06-22T19:06:29.453Z,2.20
2018-06-22T19:09:00.486Z,2.37
2018-06-22T19:11:29.569Z,2.97
2018-06-22T19:13:58.606Z,2.17
2018-06-22T19:16:29.577Z,2.80
2018-06-22T19:19:02.625Z,2.97
2018-06-22T19:21:32.588Z,2.37
2018-06-22T19:24:01.647Z,2.00
2018-06-22T19:26:30.713Z,1.93
2018-06-22T19:28:59.798Z,2.13
2018-06-22T19:31:28.858Z,1.70
2018-06-22T19:33:57.969Z,2.23
2018-06-22T19:36:27.955Z,2.00
2018-06-22T19:38:57.989Z,1.87
2018-06-22T19:41:27.946Z,2.60
2018-06-22T19:43:56.998Z,1.67
2018-06-22T19:55:14.700Z,2.10
2018-06-22T20:00:19.529Z,2.00
2018-06-22T20:05:24.316Z,2.80
2018-06-22T20:07:53.372Z,4.50
2018-06-22T20:10:22.471Z,3.90
2018-06-22T20:15:27.221Z,3.30
2018-06-22T20:17:56.293Z,3.05
2018-06-22T20:20:25.385Z,2.20
2018-06-22T20:22:55.022Z,2.30
2018-06-22T20:25:24.129Z,2.63
2018-06-22T20:30:28.966Z,2.95
2018-06-22T20:32:58.973Z,3.00
2018-06-22T20:44:09.178Z,3.10
2018-06-22T20:46:39.197Z,3.17
2018-06-22T20:52:03.992Z,3.75
2018-06-22T20:54:34.341Z,2.90
2018-06-22T20:57:03.649Z,2.93
2018-06-22T20:59:32.698Z,2.70
2018-06-22T21:02:02.155Z,2.63
2018-06-22T21:04:31.221Z,2.93
2018-06-22T21:07:03.297Z,2.93
2018-06-22T21:09:34.333Z,2.63
2018-06-22T21:12:05.118Z,2.90
2018-06-22T21:14:34.169Z,2.80
2018-06-22T21:17:03.206Z,3.03
2018-06-22T21:22:08.029Z,3.20
2018-06-22T21:24:37.073Z,3.13
2018-06-22T21:27:06.117Z,3.43
2018-06-22T21:41:27.417Z,3.37
2018-06-22T21:43:56.575Z,3.20
2018-06-22T21:46:25.627Z,4.27
2018-06-22T21:51:30.441Z,3.80
2018-06-22T21:53:59.483Z,4.47
2018-06-22T21:56:28.518Z,3.20
2018-06-22T21:58:57.555Z,4.10
2018-06-22T22:01:26.626Z,4.10
2018-06-22T22:03:55.681Z,4.63
2018-06-22T22:06:24.733Z,3.50
2018-06-22T22:08:54.733Z,4.18
2018-06-22T22:11:23.788Z,3.67
2018-06-22T22:16:28.589Z,4.10
2018-06-22T22:18:57.640Z,4.00
2018-06-22T22:21:26.676Z,3.57
2018-06-22T22:23:55.811Z,4.67
2018-06-22T22:26:24.906Z,3.63
2018-06-22T22:28:54.056Z,3.87
2018-06-22T22:31:23.109Z,3.53
2018-06-22T22:33:52.165Z,3.53
2018-06-22T22:36:21.194Z,3.90
2018-06-22T22:41:25.996Z,3.33
2018-06-22T22:43:55.099Z,3.92
2018-06-22T22:46:24.198Z,3.77
2018-06-22T22:48:53.283Z,3.70
2018-06-22T22:51:22.312Z,4.00
2018-06-22T22:53:51.367Z,3.37
2018-06-22T22:56:20.409Z,3.80
2018-06-22T22:58:53.292Z,3.77
2018-06-22T23:01:22.349Z,3.90
2018-06-22T23:03:51.481Z,3.60
2018-06-22T23:08:58.312Z,3.70
2018-06-22T23:11:27.374Z,4.10
2018-06-22T23:16:32.167Z,4.47
2018-06-22T23:19:01.237Z,3.78
2018-06-22T23:21:33.338Z,3.57
2018-06-22T23:24:02.364Z,4.30
2018-06-22T23:26:31.478Z,4.30
2018-06-22T23:29:01.424Z,4.00
2018-06-22T23:31:30.473Z,4.40
2018-06-22T23:34:02.692Z,3.73
2018-06-22T23:36:31.744Z,3.90
2018-06-22T23:39:00.785Z,4.37
2018-06-22T23:41:30.862Z,3.80
2018-06-22T23:44:01.879Z,3.80
2018-06-22T23:46:30.924Z,4.10
2018-06-22T23:51:35.768Z,3.90
2018-06-22T23:54:05.821Z,3.90
2018-06-22T23:58:57.078Z,4.10
